WIPA/DJB METAR and TAF weather

Enter ICAO airport designator
Station Type Date Time Source
WIPA METAR UTC NOAA

Error!


Station Type Date Time Source
WIPA Decoded METAR UTC NOAA

Error!

Station Type Date Time Source
WIPA TAF 2013/10/01 00:00 UTC NOAA

TAF WIPA 012300Z 0200/0212 14012KT 9999 SCT014
TEMPO 0208/0212 5000 -RA FEW012CB=TAF WIPH 012300Z 0200/0212 16008KT 9999 SCT014
TEMPO 0200/0204 5000 -RA FEW012CB


Example: see airport list